Time;durP1;ratioP1;P1;durP2;ratioP2;P2;SDS_P1;SDS_P2;PMS_P1;PMS_P2;Temp;Humidity;BMP_temperature;BMP_pressure;BME280_temperature;BME280_humidity;BME280_pressure;Samples;Min_cycle;Max_cycle;Signal;HPM_P1;HPM_P2
2023/03/27 00:00:57;;;;;;;6.85;1.58;;;4.60;99.90;;;;;;5036992;28;20048;-61
2023/03/27 00:03:24;;;;;;;7.75;1.88;;;4.60;99.90;;;;;;5036196;28;20380;-63
2023/03/27 00:06:00;;;;;;;8.23;1.38;;;4.60;99.90;;;;;;5036158;28;20394;-63
2023/03/27 00:08:26;;;;;;;10.00;1.90;;;4.50;99.90;;;;;;5019819;28;20049;-63
2023/03/27 00:10:53;;;;;;;6.57;1.40;;;4.60;99.90;;;;;;5020060;28;20041;-63
2023/03/27 00:13:19;;;;;;;9.30;1.63;;;4.50;99.90;;;;;;5035436;28;20077;-63
2023/03/27 00:15:45;;;;;;;5.68;1.70;;;4.50;99.90;;;;;;5018183;28;20171;-63
2023/03/27 00:18:12;;;;;;;7.53;1.63;;;4.40;99.90;;;;;;5016301;28;20429;-63
2023/03/27 00:20:38;;;;;;;9.73;1.70;;;4.40;99.90;;;;;;5015790;28;20513;-63
2023/03/27 00:23:05;;;;;;;7.32;1.85;;;4.30;99.90;;;;;;5016248;28;20144;-63
2023/03/27 00:25:32;;;;;;;5.20;1.67;;;4.30;99.90;;;;;;5034308;28;20041;-63
2023/03/27 00:27:58;;;;;;;10.80;1.90;;;4.30;99.90;;;;;;5015898;28;20088;-63
2023/03/27 00:30:27;;;;;;;7.88;2.63;;;4.30;99.90;;;;;;5033488;28;20383;-60
2023/03/27 00:32:54;;;;;;;8.75;1.77;;;4.20;99.90;;;;;;5016139;28;20478;-61
2023/03/27 00:35:21;;;;;;;7.82;1.63;;;4.30;99.90;;;;;;5015300;28;20048;-61
2023/03/27 00:37:47;;;;;;;8.02;1.58;;;4.20;99.90;;;;;;4999960;28;20037;-61
2023/03/27 00:40:22;;;;;;;10.45;1.58;;;4.20;99.90;;;;;;5015421;28;20103;-61
2023/03/27 00:42:50;;;;;;;8.23;2.25;;;4.20;99.90;;;;;;5016125;28;20034;-61
2023/03/27 00:45:23;;;;;;;6.13;1.55;;;4.10;99.90;;;;;;5015526;28;20049;-61
2023/03/27 00:48:02;;;;;;;8.68;2.47;;;4.10;99.90;;;;;;5015012;28;20501;-61
2023/03/27 00:50:35;;;;;;;9.10;1.77;;;4.10;99.90;;;;;;5033484;28;20042;-61
2023/03/27 00:53:12;;;;;;;5.05;1.48;;;4.00;99.90;;;;;;5033532;28;20479;-61
2023/03/27 00:55:42;;;;;;;7.43;2.15;;;4.00;99.90;;;;;;5033172;28;20042;-61
2023/03/27 00:58:21;;;;;;;3.42;1.27;;;4.00;99.90;;;;;;5033780;28;20037;-61
2023/03/27 01:00:51;;;;;;;7.50;1.60;;;3.90;99.90;;;;;;4999810;28;20111;-61
2023/03/27 01:03:18;;;;;;;9.82;1.40;;;3.90;99.90;;;;;;4998202;28;20068;-60
2023/03/27 01:05:46;;;;;;;7.50;1.52;;;3.90;99.90;;;;;;5015686;28;20499;-60
2023/03/27 01:08:13;;;;;;;7.97;1.30;;;3.90;99.90;;;;;;5032720;28;20091;-63
2023/03/27 01:10:56;;;;;;;7.20;1.42;;;3.90;99.90;;;;;;5032653;28;20041;-63
2023/03/27 01:14:00;;;;;;;4.90;1.75;;;3.90;99.90;;;;;;4999004;28;20037;-63
2023/03/27 01:16:50;;;;;;;11.93;2.20;;;3.90;99.90;;;;;;4998149;28;20045;-63
2023/03/27 01:19:40;;;;;;;7.93;1.60;;;3.90;99.90;;;;;;4998527;28;20041;-63
2023/03/27 01:22:27;;;;;;;4.53;1.38;;;3.90;99.90;;;;;;4998564;28;20049;-63
2023/03/27 01:25:16;;;;;;;5.53;1.30;;;3.90;99.90;;;;;;5030461;28;20494;-63
2023/03/27 01:27:57;;;;;;;3.72;1.17;;;3.90;99.90;;;;;;5035247;28;20041;-63
2023/03/27 01:30:35;;;;;;;9.65;1.80;;;4.00;99.90;;;;;;5051591;28;20051;-63
2023/03/27 01:33:20;;;;;;;5.82;1.40;;;4.00;99.90;;;;;;5018415;28;20055;-63
2023/03/27 01:35:57;;;;;;;7.35;1.35;;;4.00;99.90;;;;;;5034830;28;20041;-63
2023/03/27 01:38:33;;;;;;;8.73;1.90;;;4.00;99.90;;;;;;5051518;28;20060;-63
2023/03/27 01:41:17;;;;;;;;;;;4.00;99.90;;;;;;5053032;28;20406;-63
2023/03/27 01:44:02;;;;;;;7.93;1.95;;;4.00;99.90;;;;;;5032700;28;19917;-63
2023/03/27 01:46:40;;;;;;;3.78;1.45;;;4.00;99.90;;;;;;5034672;28;20044;-63
2023/03/27 01:49:41;;;;;;;9.57;1.73;;;4.00;99.90;;;;;;5020080;28;20041;-63
2023/03/27 01:52:12;;;;;;;4.85;1.30;;;4.10;99.90;;;;;;5010597;28;20482;-63
2023/03/27 01:54:42;;;;;;;7.53;1.52;;;4.10;99.90;;;;;;4998498;28;20509;-63
2023/03/27 01:57:19;;;;;;;8.20;1.98;;;4.10;99.90;;;;;;5014188;28;20052;-63
2023/03/27 01:59:54;;;;;;;5.95;1.33;;;4.30;99.90;;;;;;5031535;28;20045;-61
2023/03/27 02:02:31;;;;;;;4.35;1.20;;;4.30;99.90;;;;;;5031934;28;20037;-61
2023/03/27 02:05:02;;;;;;;4.50;1.23;;;4.30;99.90;;;;;;5014292;28;20046;-60
2023/03/27 02:07:33;;;;;;;4.82;1.10;;;4.40;99.90;;;;;;5014520;28;20087;-63
2023/03/27 02:10:04;;;;;;;11.25;1.27;;;4.40;99.90;;;;;;5032413;28;20049;-60
2023/03/27 02:12:33;;;;;;;8.07;1.42;;;4.50;99.90;;;;;;5013605;28;20034;-63
2023/03/27 02:15:10;;;;;;;6.60;1.20;;;4.50;99.90;;;;;;5014689;28;20133;-63
2023/03/27 02:17:43;;;;;;;7.35;1.50;;;4.50;99.90;;;;;;5014641;28;20051;-63
2023/03/27 02:20:15;;;;;;;6.43;2.53;;;4.50;99.90;;;;;;5013555;28;20053;-63
2023/03/27 02:22:42;;;;;;;5.05;1.08;;;4.50;99.90;;;;;;5014567;28;20041;-63
2023/03/27 02:25:27;;;;;;;10.00;1.73;;;4.50;99.90;;;;;;5031616;28;20041;-63
2023/03/27 02:28:11;;;;;;;4.90;1.00;;;4.40;99.90;;;;;;5013912;28;20037;-63
2023/03/27 02:31:00;;;;;;;6.90;1.30;;;4.40;99.90;;;;;;5032069;28;20093;-64
2023/03/27 02:33:28;;;;;;;9.93;1.40;;;4.30;99.90;;;;;;5031255;28;20041;-63
2023/03/27 02:36:31;;;;;;;6.32;2.10;;;4.30;99.90;;;;;;5032262;28;20040;-63
2023/03/27 02:39:11;;;;;;;9.90;1.83;;;4.30;99.90;;;;;;5014483;28;20096;-63
2023/03/27 02:41:39;;;;;;;6.88;1.70;;;4.30;99.90;;;;;;5013471;28;20049;-63
2023/03/27 02:44:16;;;;;;;7.38;1.60;;;4.30;99.90;;;;;;5013616;28;20042;-63
2023/03/27 02:46:42;;;;;;;5.78;1.58;;;4.40;99.90;;;;;;5014597;28;20042;-63
2023/03/27 02:49:17;;;;;;;8.93;1.65;;;4.30;99.90;;;;;;4996594;28;20573;-61
2023/03/27 02:51:49;;;;;;;10.38;2.15;;;4.30;99.90;;;;;;5032052;28;20033;-61
2023/03/27 02:54:21;;;;;;;7.72;1.58;;;4.30;99.90;;;;;;5013122;28;20091;-61
2023/03/27 02:56:56;;;;;;;10.68;2.60;;;4.30;99.90;;;;;;5032262;28;20372;-61
2023/03/27 02:59:27;;;;;;;8.35;1.67;;;4.30;99.90;;;;;;5013930;28;20037;-63
2023/03/27 03:01:53;;;;;;;6.95;1.85;;;4.20;99.90;;;;;;5013762;28;20041;-63
2023/03/27 03:04:24;;;;;;;8.75;1.90;;;4.20;99.90;;;;;;5013677;28;20124;-63
2023/03/27 03:06:50;;;;;;;10.07;1.88;;;4.10;99.90;;;;;;5014178;28;20116;-63
2023/03/27 03:09:17;;;;;;;9.32;1.80;;;4.00;99.90;;;;;;5012810;28;20053;-63
2023/03/27 03:11:46;;;;;;;7.10;1.85;;;4.00;99.90;;;;;;5015567;28;20041;-63
2023/03/27 03:14:12;;;;;;;6.22;1.80;;;4.00;99.90;;;;;;5035089;28;20033;-63
2023/03/27 03:16:38;;;;;;;11.15;2.25;;;4.00;99.90;;;;;;5034849;28;20060;-63
2023/03/27 03:19:03;;;;;;;6.63;2.10;;;4.10;99.90;;;;;;5017709;28;20045;-63
2023/03/27 03:21:30;;;;;;;6.97;2.00;;;4.10;99.90;;;;;;5035057;28;20513;-63
2023/03/27 03:23:56;;;;;;;8.52;2.28;;;4.10;99.90;;;;;;5017116;28;20099;-63
2023/03/27 03:26:22;;;;;;;7.75;2.60;;;4.10;99.90;;;;;;5017117;28;20482;-63
2023/03/27 03:28:48;;;;;;;13.90;3.17;;;4.20;99.90;;;;;;5017627;28;20124;-63
2023/03/27 03:31:14;;;;;;;7.07;2.05;;;4.10;99.90;;;;;;5016477;28;20045;-63
2023/03/27 03:33:39;;;;;;;8.57;1.88;;;4.00;99.90;;;;;;5017365;28;20029;-63
2023/03/27 03:36:06;;;;;;;6.05;1.65;;;4.00;99.90;;;;;;5034623;28;20033;-63
2023/03/27 03:38:34;;;;;;;4.95;1.73;;;3.80;99.90;;;;;;5016867;28;20494;-63
2023/03/27 03:41:00;;;;;;;6.75;2.25;;;3.70;99.90;;;;;;5034779;28;20416;-63
2023/03/27 03:43:29;;;;;;;6.72;1.75;;;3.50;99.90;;;;;;5016519;28;20057;-63
2023/03/27 03:45:54;;;;;;;6.57;1.80;;;3.40;99.90;;;;;;5001113;28;20046;-63
2023/03/27 03:48:21;;;;;;;9.10;2.42;;;3.30;99.90;;;;;;5000169;28;20468;-63
2023/03/27 03:50:47;;;;;;;5.95;1.85;;;3.20;99.90;;;;;;5016631;28;20037;-63
2023/03/27 03:53:15;;;;;;;10.13;2.83;;;3.20;99.90;;;;;;5016623;28;20068;-63
2023/03/27 03:55:42;;;;;;;12.82;2.13;;;3.20;99.90;;;;;;5034675;28;20120;-63
2023/03/27 03:58:08;;;;;;;5.78;1.70;;;3.30;99.90;;;;;;5015903;28;20104;-63
2023/03/27 04:00:37;;;;;;;5.45;2.15;;;3.40;99.90;;;;;;5034736;28;20037;-62
2023/03/27 04:03:03;;;;;;;8.00;2.60;;;3.50;99.90;;;;;;5000270;28;20041;-63
2023/03/27 04:05:30;;;;;;;7.70;2.15;;;3.60;99.90;;;;;;5015949;28;20033;-63
2023/03/27 04:07:58;;;;;;;8.27;1.40;;;3.80;99.90;;;;;;5017270;28;20538;-63
2023/03/27 04:10:26;;;;;;;5.80;1.60;;;3.90;99.90;;;;;;5016326;28;20052;-63
2023/03/27 04:12:52;;;;;;;7.43;1.80;;;3.90;99.90;;;;;;5016231;28;20041;-63
2023/03/27 04:15:18;;;;;;;4.60;1.33;;;4.00;99.90;;;;;;5033997;28;20120;-63
2023/03/27 04:17:47;;;;;;;4.82;1.30;;;4.00;99.90;;;;;;5016979;28;20033;-63
2023/03/27 04:20:13;;;;;;;10.18;1.83;;;4.10;99.90;;;;;;5033073;28;20065;-63
2023/03/27 04:22:47;;;;;;;6.88;1.80;;;4.10;99.90;;;;;;5016493;28;20077;-63
2023/03/27 04:25:15;;;;;;;4.88;1.80;;;4.20;99.90;;;;;;5015793;28;20425;-63
2023/03/27 04:27:42;;;;;;;6.13;1.48;;;4.20;99.90;;;;;;5015619;28;20493;-63
2023/03/27 04:30:09;;;;;;;5.88;1.95;;;4.10;99.90;;;;;;5015785;28;20049;-63
2023/03/27 04:32:35;;;;;;;5.57;1.42;;;4.10;99.90;;;;;;5033390;28;20071;-63
2023/03/27 04:35:02;;;;;;;6.53;1.25;;;4.10;99.90;;;;;;5033941;28;20037;-63
2023/03/27 04:37:29;;;;;;;7.82;2.03;;;4.10;99.90;;;;;;5016237;28;20540;-63
2023/03/27 04:39:55;;;;;;;4.85;1.70;;;4.00;99.90;;;;;;5015354;28;20057;-63
2023/03/27 04:42:22;;;;;;;4.57;1.88;;;3.90;99.90;;;;;;5015455;28;20076;-63
2023/03/27 04:44:49;;;;;;;4.93;1.20;;;3.90;99.90;;;;;;5000103;28;20045;-63
2023/03/27 04:47:15;;;;;;;8.50;1.15;;;3.80;99.90;;;;;;5014659;28;20070;-63
2023/03/27 04:49:45;;;;;;;7.70;1.55;;;3.90;99.90;;;;;;5017337;28;20037;-63
2023/03/27 04:52:13;;;;;;;5.18;1.25;;;3.90;99.90;;;;;;4999708;28;20041;-63
2023/03/27 04:54:39;;;;;;;7.93;1.35;;;3.90;99.90;;;;;;5032890;28;20116;-63
2023/03/27 04:57:06;;;;;;;4.93;1.10;;;3.90;99.90;;;;;;5015266;28;20042;-63
2023/03/27 04:59:32;;;;;;;6.43;1.38;;;3.90;99.90;;;;;;5033812;28;20413;-63
2023/03/27 05:02:00;;;;;;;6.35;1.38;;;3.90;99.90;;;;;;5015284;28;20042;-63
2023/03/27 05:04:26;;;;;;;5.28;1.15;;;3.90;99.90;;;;;;4999181;28;20076;-63
2023/03/27 05:06:56;;;;;;;6.68;1.25;;;3.90;99.90;;;;;;5034414;28;20517;-63
2023/03/27 05:09:22;;;;;;;9.30;1.73;;;3.90;99.90;;;;;;5031995;28;20040;-63
2023/03/27 05:11:49;;;;;;;9.32;1.75;;;3.90;99.90;;;;;;5033375;28;20475;-63
2023/03/27 05:14:19;;;;;;;5.88;1.17;;;3.90;99.90;;;;;;5032959;28;20112;-63
2023/03/27 05:16:48;;;;;;;5.82;1.20;;;3.90;99.90;;;;;;5032042;28;20033;-63
2023/03/27 05:19:15;;;;;;;4.28;1.15;;;4.00;99.90;;;;;;5034839;28;20131;-63
2023/03/27 05:21:41;;;;;;;10.13;1.40;;;3.90;99.90;;;;;;5034977;28;20041;-63
2023/03/27 05:24:07;;;;;;;5.57;1.77;;;3.90;99.90;;;;;;5052049;28;20044;-63
2023/03/27 05:26:32;;;;;;;5.05;1.20;;;3.90;99.90;;;;;;5052720;28;20390;-63
2023/03/27 05:28:58;;;;;;;6.57;1.38;;;3.90;99.90;;;;;;5034444;28;20083;-63
2023/03/27 05:31:26;;;;;;;10.00;1.95;;;3.80;99.90;;;;;;5052478;28;20554;-63
2023/03/27 05:33:52;;;;;;;9.30;1.60;;;3.90;99.90;;;;;;5034782;28;20119;-63
2023/03/27 05:36:18;;;;;;;8.95;1.73;;;3.90;99.90;;;;;;5033715;28;20108;-63
2023/03/27 05:38:44;;;;;;;4.80;1.33;;;3.90;99.90;;;;;;5034576;28;20075;-63
2023/03/27 05:41:10;;;;;;;6.38;1.20;;;3.90;99.90;;;;;;5034156;28;20064;-63
2023/03/27 05:43:36;;;;;;;7.60;1.55;;;4.00;99.90;;;;;;5034055;28;20044;-63
2023/03/27 05:46:03;;;;;;;6.10;1.25;;;4.00;99.90;;;;;;5034604;28;20059;-63
2023/03/27 05:48:29;;;;;;;7.50;2.00;;;4.00;99.90;;;;;;5052236;28;20570;-63
2023/03/27 05:50:59;;;;;;;7.72;1.60;;;4.00;99.90;;;;;;5033390;28;20128;-63
2023/03/27 05:53:25;;;;;;;6.45;1.80;;;4.10;99.90;;;;;;5017838;28;20127;-63
2023/03/27 05:55:51;;;;;;;6.85;1.75;;;4.00;99.90;;;;;;5034986;28;20146;-63
2023/03/27 05:58:17;;;;;;;11.50;1.80;;;4.00;99.90;;;;;;5016915;28;20569;-63
2023/03/27 06:00:43;;;;;;;7.32;1.80;;;4.10;99.90;;;;;;5052202;28;20041;-63
2023/03/27 06:03:12;;;;;;;8.63;1.45;;;4.10;99.90;;;;;;5051803;28;20041;-63
2023/03/27 06:05:39;;;;;;;6.75;1.65;;;4.10;99.90;;;;;;5033825;28;20414;-63
2023/03/27 06:08:07;;;;;;;9.95;1.85;;;4.10;99.90;;;;;;5051909;28;20029;-63
2023/03/27 06:10:33;;;;;;;6.28;1.50;;;4.10;99.90;;;;;;5034282;28;20036;-63
2023/03/27 06:13:07;;;;;;;10.38;1.58;;;4.10;99.90;;;;;;5033391;28;20051;-63
2023/03/27 06:15:35;;;;;;;9.13;2.35;;;4.10;99.90;;;;;;5018278;28;20151;-63
2023/03/27 06:18:01;;;;;;;25.58;11.38;;;4.10;99.90;;;;;;5033321;28;20037;-63
2023/03/27 06:20:27;;;;;;;60.72;30.95;;;4.10;99.90;;;;;;5017101;28;20421;-63
2023/03/27 06:22:55;;;;;;;40.00;19.25;;;4.10;99.90;;;;;;5018210;28;20039;-63
2023/03/27 06:25:22;;;;;;;15.02;6.60;;;4.10;99.90;;;;;;5032687;28;20128;-63
2023/03/27 06:27:49;;;;;;;124.10;85.53;;;4.20;99.90;;;;;;5052062;28;20457;-63
2023/03/27 06:30:17;;;;;;;14.43;7.57;;;4.20;99.90;;;;;;5017179;28;20173;-63
2023/03/27 06:32:45;;;;;;;49.47;32.13;;;4.30;99.90;;;;;;5016560;28;20041;-63
2023/03/27 06:35:13;;;;;;;16.83;9.20;;;4.30;99.90;;;;;;5051149;28;20090;-63
2023/03/27 06:37:45;;;;;;;34.35;20.60;;;4.30;99.90;;;;;;5017810;28;20069;-62
2023/03/27 06:40:21;;;;;;;22.85;9.23;;;4.30;99.90;;;;;;5016316;28;20052;-63
2023/03/27 06:42:58;;;;;;;35.30;12.70;;;4.40;99.90;;;;;;5034308;28;20128;-63
2023/03/27 06:45:51;;;;;;;16.38;7.60;;;4.40;99.90;;;;;;5051325;28;20049;-63
2023/03/27 06:48:18;;;;;;;96.38;58.95;;;4.50;99.90;;;;;;5017221;28;20045;-63
2023/03/27 06:50:46;;;;;;;218.13;129.68;;;4.50;99.90;;;;;;5019479;28;20385;-63
2023/03/27 06:53:15;;;;;;;46.53;27.23;;;4.60;99.90;;;;;;5047402;28;20037;-63
2023/03/27 06:55:42;;;;;;;11.35;6.65;;;4.70;99.90;;;;;;5018609;28;20116;-63
2023/03/27 06:58:13;;;;;;;26.25;18.08;;;4.70;99.90;;;;;;5051394;28;20037;-63
2023/03/27 07:00:40;;;;;;;43.92;32.42;;;4.80;99.90;;;;;;5009443;28;20475;-63
2023/03/27 07:03:08;;;;;;;68.80;51.25;;;4.80;99.90;;;;;;5017815;28;20382;-63
2023/03/27 07:05:37;;;;;;;21.00;12.00;;;5.00;99.90;;;;;;5037276;28;20045;-63
2023/03/27 07:08:06;;;;;;;35.67;22.77;;;5.20;99.90;;;;;;5003209;28;20124;-63
2023/03/27 07:10:32;;;;;;;50.47;30.40;;;5.20;99.90;;;;;;5017697;28;20069;-63
2023/03/27 07:12:58;;;;;;;25.70;16.15;;;5.00;99.90;;;;;;5037968;28;20040;-63
2023/03/27 07:15:24;;;;;;;41.75;25.00;;;4.80;99.90;;;;;;5044949;28;20499;-63
2023/03/27 07:18:00;;;;;;;19.05;11.15;;;4.60;99.90;;;;;;5020794;28;20046;-63
2023/03/27 07:20:28;;;;;;;7.45;2.05;;;4.30;99.90;;;;;;5036371;28;20583;-63
2023/03/27 07:22:56;;;;;;;8.55;2.15;;;4.20;99.90;;;;;;4999422;28;20052;-62
2023/03/27 07:25:26;;;;;;;6.53;1.95;;;4.20;99.90;;;;;;5029623;28;20076;-63
2023/03/27 07:27:57;;;;;;;9.82;1.83;;;4.10;99.90;;;;;;5023983;28;20094;-63
2023/03/27 07:30:23;;;;;;;11.70;2.85;;;3.90;99.90;;;;;;4997887;28;20751;-63
2023/03/27 07:32:48;;;;;;;7.45;2.72;;;3.70;99.90;;;;;;5018182;28;20119;-63
2023/03/27 07:35:14;;;;;;;8.30;3.75;;;3.50;99.90;;;;;;5030296;28;20049;-63
2023/03/27 07:37:41;;;;;;;15.70;6.78;;;3.40;99.90;;;;;;5032706;28;20047;-63
2023/03/27 07:40:12;;;;;;;8.57;2.25;;;3.30;99.90;;;;;;5013649;28;20057;-63
2023/03/27 07:42:43;;;;;;;6.53;1.55;;;3.20;99.90;;;;;;5009322;28;20041;-63
2023/03/27 07:45:11;;;;;;;9.07;2.50;;;3.10;99.90;;;;;;5029434;28;20045;-63
2023/03/27 07:47:38;;;;;;;6.55;1.63;;;3.20;99.90;;;;;;5041885;28;20048;-63
2023/03/27 07:50:05;;;;;;;6.65;1.58;;;3.30;99.90;;;;;;5010510;28;20094;-63
2023/03/27 07:52:33;;;;;;;6.68;1.85;;;3.50;99.90;;;;;;5045280;28;20497;-63
2023/03/27 07:54:59;;;;;;;10.30;1.85;;;3.60;99.90;;;;;;5044692;28;20120;-63
2023/03/27 07:57:25;;;;;;;9.82;1.85;;;3.70;99.90;;;;;;5003909;28;20412;-63
2023/03/27 07:59:51;;;;;;;7.85;1.70;;;4.00;99.90;;;;;;5033041;28;20451;-63
2023/03/27 08:02:17;;;;;;;6.78;1.88;;;4.20;99.90;;;;;;4998834;28;20045;-63
2023/03/27 08:04:42;;;;;;;6.15;1.75;;;4.40;99.90;;;;;;5000321;28;20040;-63
2023/03/27 08:07:10;;;;;;;7.55;2.00;;;4.60;99.90;;;;;;5020749;28;20063;-63
2023/03/27 08:09:36;;;;;;;9.75;1.80;;;4.80;99.90;;;;;;5025259;28;20542;-63
2023/03/27 08:12:02;;;;;;;8.27;2.63;;;4.90;99.90;;;;;;5027177;28;20132;-63
2023/03/27 08:14:28;;;;;;;3.60;0.88;;;4.90;99.90;;;;;;5028155;28;20053;-63
2023/03/27 08:16:54;;;;;;;2.33;0.88;;;4.50;99.90;;;;;;5040279;28;20041;-63
2023/03/27 08:19:20;;;;;;;2.58;0.75;;;4.10;99.90;;;;;;5045554;28;20047;-63
2023/03/27 08:21:46;;;;;;;3.67;1.10;;;3.80;99.90;;;;;;5016081;28;20053;-62
2023/03/27 08:24:12;;;;;;;3.97;1.17;;;3.60;99.90;;;;;;5029870;28;20397;-62
2023/03/27 08:26:37;;;;;;;3.42;1.45;;;3.40;99.90;;;;;;5036815;28;20041;-62
2023/03/27 08:29:03;;;;;;;2.75;0.73;;;3.30;99.90;;;;;;5023136;28;20045;-63
2023/03/27 08:31:30;;;;;;;3.50;0.90;;;3.30;99.90;;;;;;5048216;28;20041;-62
2023/03/27 08:33:56;;;;;;;3.55;0.73;;;3.40;99.90;;;;;;5004867;28;20029;-62
2023/03/27 08:36:22;;;;;;;5.90;1.67;;;3.50;99.90;;;;;;5046170;28;20043;-63
2023/03/27 08:38:48;;;;;;;3.00;0.98;;;3.60;99.90;;;;;;5031488;28;20052;-63
2023/03/27 08:41:37;;;;;;;6.20;1.00;;;3.80;99.90;;;;;;4967640;28;1099905;-62
2023/03/27 08:44:05;;;;;;;4.88;1.20;;;4.00;99.90;;;;;;5029053;28;20104;-62
2023/03/27 08:46:37;;;;;;;7.03;1.30;;;4.20;99.90;;;;;;5033738;28;20060;-62
2023/03/27 08:49:16;;;;;;;6.50;1.38;;;4.50;99.90;;;;;;4997002;28;20065;-62
2023/03/27 08:52:00;;;;;;;7.85;1.50;;;4.60;99.90;;;;;;5030631;28;20052;-62
2023/03/27 08:54:32;;;;;;;30.60;19.02;;;4.80;99.90;;;;;;5049762;28;20049;-62
2023/03/27 08:56:58;;;;;;;22.08;15.77;;;5.00;99.90;;;;;;5018210;28;20033;-62
2023/03/27 08:59:27;;;;;;;7.75;2.95;;;5.20;99.90;;;;;;5022580;28;20308;-62
2023/03/27 09:02:14;;;;;;;5.45;1.48;;;5.30;99.90;;;;;;5027157;28;20486;-62
2023/03/27 09:05:03;;;;;;;5.95;1.70;;;5.50;99.90;;;;;;5036896;28;20401;-62
2023/03/27 09:07:38;;;;;;;9.07;1.90;;;5.60;99.90;;;;;;5027026;28;20041;-63
2023/03/27 09:10:38;;;;;;;8.23;1.75;;;5.70;99.90;;;;;;5030990;28;20064;-62
2023/03/27 09:13:19;;;;;;;8.82;1.63;;;5.80;99.90;;;;;;5030614;28;20182;-62
2023/03/27 09:16:24;;;;;;;7.15;1.42;;;5.90;99.90;;;;;;5020329;28;20561;-62
2023/03/27 09:19:14;;;;;;;6.82;1.33;;;5.90;99.90;;;;;;4918586;28;20130;-62
2023/03/27 09:22:23;;;;;;;4.18;1.27;;;6.00;99.90;;;;;;5041729;28;20510;-62
2023/03/27 09:24:53;;;;;;;5.03;1.10;;;5.90;99.90;;;;;;5011492;28;20045;-63
2023/03/27 09:27:35;;;;;;;6.78;1.13;;;5.80;99.90;;;;;;5045932;28;20127;-62
2023/03/27 09:30:09;;;;;;;4.55;1.63;;;5.90;99.90;;;;;;5027204;28;20041;-62
2023/03/27 09:32:36;;;;;;;9.02;2.28;;;6.00;99.90;;;;;;5015533;28;20037;-62
2023/03/27 09:35:03;;;;;;;8.18;1.50;;;6.10;99.90;;;;;;5009456;28;20041;-62
2023/03/27 09:37:29;;;;;;;5.55;1.35;;;6.20;99.90;;;;;;4997015;28;20823;-63
2023/03/27 09:39:59;;;;;;;7.63;1.23;;;6.20;99.90;;;;;;5039213;28;20490;-63
2023/03/27 09:42:32;;;;;;;8.27;1.50;;;6.20;99.90;;;;;;4990852;28;20061;-62
2023/03/27 09:45:02;;;;;;;9.40;1.80;;;6.20;99.90;;;;;;5010621;28;20080;-62
2023/03/27 09:47:34;;;;;;;10.35;1.73;;;6.30;99.90;;;;;;5013100;28;20041;-63
2023/03/27 09:50:18;;;;;;;10.90;1.60;;;6.30;99.90;;;;;;5007284;28;20094;-63
2023/03/27 09:52:44;;;;;;;8.55;1.67;;;6.40;99.90;;;;;;5000739;28;20136;-63
2023/03/27 09:55:25;;;;;;;7.60;1.45;;;6.60;99.90;;;;;;4981017;28;20124;-62
2023/03/27 09:58:05;;;;;;;5.22;1.50;;;6.60;99.90;;;;;;5008637;28;20037;-62
2023/03/27 10:00:32;;;;;;;6.60;1.63;;;6.50;99.90;;;;;;4995068;28;20092;-62
2023/03/27 10:02:59;;;;;;;7.93;1.60;;;6.50;99.90;;;;;;5023625;28;20067;-63
2023/03/27 10:05:25;;;;;;;7.05;1.60;;;6.40;99.90;;;;;;4991553;28;20045;-62
2023/03/27 10:07:50;;;;;;;5.88;1.13;;;6.40;99.90;;;;;;4991441;28;20044;-62
2023/03/27 10:10:20;;;;;;;8.40;1.70;;;6.40;99.90;;;;;;4994730;28;20081;-62
2023/03/27 10:12:52;;;;;;;6.35;1.77;;;6.50;99.90;;;;;;5004996;28;20038;-62
2023/03/27 10:15:39;;;;;;;5.90;1.27;;;6.60;99.90;;;;;;5020938;28;20041;-62
2023/03/27 10:18:19;;;;;;;4.18;1.13;;;6.60;99.90;;;;;;5026693;28;20530;-63
2023/03/27 10:20:53;;;;;;;8.52;1.65;;;6.80;99.90;;;;;;4999889;28;20060;-62
2023/03/27 10:23:27;;;;;;;4.60;1.35;;;6.70;99.90;;;;;;5018398;28;20056;-62
2023/03/27 10:25:58;;;;;;;7.43;1.60;;;6.80;99.90;;;;;;5011803;28;20051;-62
2023/03/27 10:28:28;;;;;;;7.47;1.30;;;6.90;99.90;;;;;;5029038;28;20128;-63
2023/03/27 10:31:25;;;;;;;5.55;1.10;;;6.90;99.90;;;;;;4978527;28;20467;-62
2023/03/27 10:33:51;;;;;;;2.15;0.88;;;6.70;99.90;;;;;;5005517;28;20057;-62
2023/03/27 10:36:17;;;;;;;3.25;0.70;;;6.20;99.90;;;;;;5011447;28;20041;-62
2023/03/27 10:38:50;;;;;;;4.53;0.77;;;5.60;99.90;;;;;;5022186;28;20769;-62
2023/03/27 10:41:17;;;;;;;4.22;1.00;;;5.30;99.90;;;;;;5038807;28;20057;-62
2023/03/27 10:43:46;;;;;;;6.78;1.38;;;5.00;99.90;;;;;;5019125;28;20131;-62
2023/03/27 10:46:15;;;;;;;6.75;1.23;;;5.00;99.90;;;;;;5038622;28;20041;-62
2023/03/27 10:49:09;;;;;;;5.47;1.73;;;5.00;99.90;;;;;;5034313;28;20056;-63
2023/03/27 10:51:47;;;;;;;6.32;1.92;;;5.40;99.90;;;;;;5016818;28;20057;-62
2023/03/27 10:54:31;;;;;;;4.90;1.98;;;5.70;99.90;;;;;;5028897;28;20364;-62
2023/03/27 10:57:07;;;;;;;4.57;1.00;;;6.00;99.90;;;;;;5029465;28;20073;-62
2023/03/27 10:59:34;;;;;;;7.82;1.10;;;6.30;99.90;;;;;;5020207;28;20128;-63
2023/03/27 11:02:26;;;;;;;5.40;1.27;;;6.50;99.90;;;;;;5020978;28;20037;-63
2023/03/27 11:04:57;;;;;;;9.15;1.75;;;6.60;99.90;;;;;;5027237;28;20092;-63
2023/03/27 11:07:36;;;;;;;7.60;1.42;;;6.80;99.90;;;;;;5032728;28;20037;-62
2023/03/27 11:10:08;;;;;;;7.28;1.60;;;6.90;99.90;;;;;;5033570;28;20490;-63
2023/03/27 11:12:36;;;;;;;19.25;9.07;;;6.90;99.90;;;;;;5033862;28;20048;-62
2023/03/27 11:15:14;;;;;;;11.43;3.10;;;7.10;99.90;;;;;;5009846;28;20120;-62
2023/03/27 11:18:01;;;;;;;9.35;4.82;;;7.10;99.90;;;;;;5047361;28;20041;-62
2023/03/27 11:20:43;;;;;;;11.00;3.65;;;7.00;99.90;;;;;;5033143;28;20048;-62
2023/03/27 11:23:38;;;;;;;8.48;2.53;;;6.90;99.90;;;;;;5011887;28;20143;-62
2023/03/27 11:26:06;;;;;;;7.47;1.90;;;6.80;99.90;;;;;;5029009;28;20041;-62
2023/03/27 11:28:41;;;;;;;7.70;1.42;;;6.80;99.90;;;;;;5048408;28;20049;-62
2023/03/27 11:31:44;;;;;;;6.18;1.35;;;6.90;99.90;;;;;;5022828;28;20079;-62
2023/03/27 11:34:14;;;;;;;15.50;2.20;;;7.10;99.90;;;;;;5014690;28;20041;-62
2023/03/27 11:37:04;;;;;;;6.53;1.60;;;7.00;99.90;;;;;;5016263;28;20044;-63
2023/03/27 11:39:54;;;;;;;4.60;1.52;;;6.90;99.90;;;;;;5016289;28;20045;-63
2023/03/27 11:42:45;;;;;;;5.95;1.58;;;6.90;99.90;;;;;;5043983;28;20068;-63
2023/03/27 11:45:16;;;;;;;5.55;2.10;;;7.00;99.90;;;;;;5015630;28;20517;-62
2023/03/27 11:47:48;;;;;;;6.38;1.35;;;7.10;99.80;;;;;;5014808;28;20069;-62
2023/03/27 11:50:33;;;;;;;3.85;1.15;;;7.10;98.10;;;;;;5022927;28;20494;-60
2023/03/27 11:53:05;;;;;;;11.98;1.50;;;7.10;98.30;;;;;;5039559;28;20029;-62
2023/03/27 11:56:09;;;;;;;5.07;1.13;;;7.10;98.40;;;;;;5029340;28;20041;-62
2023/03/27 11:59:10;;;;;;;6.35;1.67;;;7.20;98.70;;;;;;5041015;28;20045;-63
2023/03/27 12:01:50;;;;;;;8.05;1.40;;;7.20;96.70;;;;;;5001256;28;20087;-62
2023/03/27 12:04:43;;;;;;;11.73;1.50;;;7.30;95.80;;;;;;5051891;28;20068;-63
2023/03/27 12:07:43;;;;;;;9.65;1.45;;;7.40;96.50;;;;;;5036334;28;20367;-63
2023/03/27 12:10:44;;;;;;;10.55;2.00;;;7.30;96.30;;;;;;5032006;28;20088;-63
2023/03/27 12:13:19;;;;;;;5.38;1.50;;;7.30;96.40;;;;;;4974133;28;20056;-62
2023/03/27 12:16:00;;;;;;;6.10;1.50;;;7.40;97.40;;;;;;5036678;28;20041;-62
2023/03/27 12:18:53;;;;;;;4.88;1.55;;;7.50;98.90;;;;;;5035801;28;20093;-62
2023/03/27 12:21:54;;;;;;;8.52;1.77;;;7.40;99.90;;;;;;5003271;28;20041;-62
2023/03/27 12:24:34;;;;;;;5.65;1.55;;;7.20;99.90;;;;;;5033350;28;20385;-62
2023/03/27 12:27:15;;;;;;;6.55;1.20;;;6.80;99.90;;;;;;5036042;28;20044;-62
2023/03/27 12:30:12;;;;;;;7.00;1.80;;;6.50;99.90;;;;;;5019765;28;20106;-62
2023/03/27 12:33:05;;;;;;;8.07;1.75;;;6.10;99.90;;;;;;5022564;28;20482;-62
2023/03/27 12:35:38;;;;;;;4.03;1.38;;;5.50;99.90;;;;;;5053759;28;20048;-62
2023/03/27 12:38:19;;;;;;;13.48;2.13;;;5.30;99.90;;;;;;5053038;28;20398;-62
2023/03/27 12:41:09;;;;;;;5.72;2.00;;;5.30;99.90;;;;;;5052808;28;20055;-62
2023/03/27 12:43:39;;;;;;;6.03;1.38;;;5.50;99.90;;;;;;5005523;28;20083;-62
2023/03/27 12:46:10;;;;;;;9.38;1.77;;;5.60;99.90;;;;;;5033059;28;20041;-62
2023/03/27 12:48:54;;;;;;;6.53;1.90;;;5.80;99.90;;;;;;5016090;28;20048;-62
2023/03/27 12:51:42;;;;;;;9.93;2.40;;;6.00;99.90;;;;;;5033069;28;20033;-62
2023/03/27 12:54:27;;;;;;;4.75;1.48;;;6.40;99.90;;;;;;4997263;28;20540;-62
2023/03/27 12:57:04;;;;;;;6.05;1.77;;;6.60;99.90;;;;;;5036030;28;20041;-62
2023/03/27 12:59:34;;;;;;;12.40;2.40;;;6.60;99.90;;;;;;5032972;28;20045;-62
2023/03/27 13:02:15;;;;;;;10.52;2.25;;;6.80;99.90;;;;;;5032277;28;20051;-62
2023/03/27 13:04:52;;;;;;;6.88;1.70;;;6.90;99.90;;;;;;5033554;28;20072;-62
2023/03/27 13:07:42;;;;;;;7.70;1.67;;;6.90;99.90;;;;;;5032861;28;20041;-62
2023/03/27 13:10:25;;;;;;;7.60;1.58;;;6.90;99.90;;;;;;5048867;28;20498;-62
2023/03/27 13:12:51;;;;;;;6.90;1.83;;;7.10;99.90;;;;;;5031766;28;20041;-62
2023/03/27 13:15:35;;;;;;;7.72;1.88;;;7.20;99.90;;;;;;5029945;28;20236;-63
2023/03/27 13:18:16;;;;;;;8.07;2.53;;;7.10;99.90;;;;;;5035425;28;20041;-65
2023/03/27 13:21:17;;;;;;;7.68;1.92;;;7.10;99.90;;;;;;5052154;28;20076;-61
2023/03/27 13:24:14;;;;;;;7.10;1.30;;;7.30;99.90;;;;;;5053751;28;20048;-61
2023/03/27 13:27:02;;;;;;;6.80;1.30;;;7.30;99.40;;;;;;5031165;28;20037;-62